Time;durP1;ratioP1;P1;durP2;ratioP2;P2;SDS_P1;SDS_P2;PMS_P1;PMS_P2;Temp;Humidity;BMP_temperature;BMP_pressure;BME280_temperature;BME280_humidity;BME280_pressure;Samples;Min_cycle;Max_cycle;Signal;HPM_P1;HPM_P2
2021/12/20 00:01:12;;;;;;;20.63;2.88;;;5.80;99.90;;;;;;5069633;28;20044;-74
2021/12/20 00:03:37;;;;;;;19.55;2.88;;;5.80;99.90;;;;;;5056829;28;20086;-74
2021/12/20 00:06:04;;;;;;;22.30;3.13;;;5.70;99.90;;;;;;5056307;28;20602;-74
2021/12/20 00:08:29;;;;;;;25.80;3.58;;;5.60;99.90;;;;;;5062432;28;20055;-74
2021/12/20 00:10:55;;;;;;;27.73;3.75;;;5.50;99.90;;;;;;5071554;28;20056;-74
2021/12/20 00:13:22;;;;;;;29.63;3.80;;;5.40;99.90;;;;;;5069497;28;20040;-74
2021/12/20 00:15:48;;;;;;;23.80;4.05;;;5.30;99.90;;;;;;5052562;28;20118;-74
2021/12/20 00:18:14;;;;;;;18.77;3.13;;;5.20;99.90;;;;;;5089630;28;20052;-74
2021/12/20 00:20:40;;;;;;;23.23;3.00;;;5.20;99.90;;;;;;5087235;28;20048;-75
2021/12/20 00:23:06;;;;;;;16.58;4.03;;;5.10;99.90;;;;;;5073137;28;20389;-74
2021/12/20 00:25:32;;;;;;;22.27;4.03;;;5.00;99.90;;;;;;5072718;28;20104;-74
2021/12/20 00:27:58;;;;;;;21.83;3.47;;;4.90;99.90;;;;;;5051620;28;20477;-74
2021/12/20 00:30:23;;;;;;;16.92;4.05;;;4.80;99.90;;;;;;5070269;28;20055;-74
2021/12/20 00:32:49;;;;;;;18.67;3.67;;;4.80;99.90;;;;;;5049922;28;20107;-74
2021/12/20 00:35:18;;;;;;;20.65;3.35;;;4.70;99.90;;;;;;5069940;28;20044;-74
2021/12/20 00:40:28;;;;;;;21.05;3.20;;;4.60;99.90;;;;;;5072070;28;20093;-74
2021/12/20 00:42:59;;;;;;;20.35;2.70;;;4.60;99.90;;;;;;5055878;28;20040;-74
2021/12/20 00:45:31;;;;;;;17.00;2.65;;;4.50;99.90;;;;;;5069582;28;20454;-74
2021/12/20 00:47:57;;;;;;;20.05;3.33;;;4.50;99.90;;;;;;5052956;28;20028;-74
2021/12/20 00:50:24;;;;;;;17.92;2.63;;;4.50;99.90;;;;;;5037428;28;20051;-74
2021/12/20 00:52:51;;;;;;;21.30;2.95;;;4.90;99.90;;;;;;5056453;28;20036;-74
2021/12/20 00:55:18;;;;;;;11.68;2.30;;;4.40;99.90;;;;;;5072993;28;20051;-75
2021/12/20 00:57:49;;;;;;;13.75;2.20;;;4.40;99.90;;;;;;5065131;28;20516;-74
2021/12/20 01:00:19;;;;;;;23.83;2.75;;;4.30;99.90;;;;;;5072159;28;20130;-74
2021/12/20 01:02:46;;;;;;;20.38;2.80;;;4.30;99.90;;;;;;5066154;28;20060;-74
2021/12/20 01:05:12;;;;;;;15.05;2.20;;;4.20;99.90;;;;;;5089310;28;20044;-74
2021/12/20 01:07:37;;;;;;;15.98;2.75;;;4.50;99.90;;;;;;5069580;28;20086;-74
2021/12/20 01:10:07;;;;;;;16.40;2.30;;;4.10;99.90;;;;;;5056000;28;20170;-74
2021/12/20 01:12:43;;;;;;;18.92;2.83;;;4.00;99.90;;;;;;5072477;28;20496;-75
2021/12/20 01:15:11;;;;;;;17.02;3.30;;;4.00;99.90;;;;;;5040302;28;20040;-74
2021/12/20 01:17:37;;;;;;;19.70;2.78;;;4.10;99.90;;;;;;5056880;28;20484;-74
2021/12/20 01:20:05;;;;;;;11.30;2.20;;;3.90;99.90;;;;;;5071558;28;20058;-74
2021/12/20 01:22:30;;;;;;;18.55;2.70;;;3.90;99.90;;;;;;5055617;28;20044;-74
2021/12/20 01:24:56;;;;;;;23.98;2.92;;;3.90;99.90;;;;;;5072421;28;20057;-74
2021/12/20 01:27:22;;;;;;;13.88;2.00;;;3.80;99.90;;;;;;5072085;28;20044;-74
2021/12/20 01:29:47;;;;;;;20.08;2.33;;;3.70;99.90;;;;;;5058173;28;20072;-74
2021/12/20 01:32:13;;;;;;;17.63;3.38;;;3.70;99.90;;;;;;5076801;28;20050;-74
2021/12/20 01:34:39;;;;;;;14.77;2.20;;;3.60;99.90;;;;;;5076598;28;20134;-75
2021/12/20 01:37:05;;;;;;;16.77;2.53;;;3.60;99.90;;;;;;5075783;28;20044;-73
2021/12/20 01:39:30;;;;;;;22.40;3.13;;;3.60;99.90;;;;;;5057621;28;20399;-74
2021/12/20 01:41:58;;;;;;;19.83;2.63;;;3.40;99.90;;;;;;5074842;28;20039;-74
2021/12/20 01:44:24;;;;;;;15.00;2.30;;;3.90;99.90;;;;;;5072996;28;20110;-74
2021/12/20 01:46:50;;;;;;;13.25;2.05;;;3.40;99.90;;;;;;5056451;28;20127;-74
2021/12/20 01:49:17;;;;;;;17.40;2.05;;;3.30;99.90;;;;;;5042910;28;20055;-74
2021/12/20 01:52:03;;;;;;;14.77;2.50;;;3.30;99.90;;;;;;5076304;28;20471;-74
2021/12/20 01:54:30;;;;;;;17.27;2.80;;;3.30;99.90;;;;;;5055590;28;20067;-75
2021/12/20 01:56:56;;;;;;;17.15;2.70;;;3.30;99.90;;;;;;5054004;28;20048;-74
2021/12/20 01:59:22;;;;;;;13.88;2.30;;;3.20;99.90;;;;;;5059579;28;20397;-74
2021/12/20 02:01:48;;;;;;;19.73;2.85;;;3.20;99.90;;;;;;5094683;28;20132;-74
2021/12/20 02:04:14;;;;;;;20.70;2.95;;;3.60;99.90;;;;;;5073207;28;20135;-74
2021/12/20 02:06:44;;;;;;;20.60;2.78;;;3.50;99.90;;;;;;5075527;28;20048;-74
2021/12/20 02:09:31;;;;;;;16.13;2.72;;;3.90;99.90;;;;;;5031086;28;20424;-74
2021/12/20 02:11:57;;;;;;;12.07;2.05;;;3.90;99.90;;;;;;5018393;28;20128;-74
2021/12/20 02:14:23;;;;;;;17.17;2.22;;;3.10;99.90;;;;;;5030373;28;20080;-74
2021/12/20 02:16:48;;;;;;;8.27;2.10;;;3.00;99.90;;;;;;5029630;28;20056;-74
2021/12/20 02:19:16;;;;;;;13.32;2.47;;;3.00;99.90;;;;;;5030145;28;20088;-74
2021/12/20 02:21:44;;;;;;;18.75;2.15;;;2.90;99.90;;;;;;5025644;28;20041;-75
2021/12/20 02:24:11;;;;;;;14.68;2.30;;;3.20;99.90;;;;;;5024837;28;20103;-74
2021/12/20 02:26:37;;;;;;;13.23;2.10;;;2.80;99.90;;;;;;5030128;28;20110;-74
2021/12/20 02:29:08;;;;;;;23.27;2.63;;;3.20;99.90;;;;;;5030002;28;20456;-74
2021/12/20 02:39:31;;;;;;;15.38;2.13;;;2.70;99.90;;;;;;5044376;28;20818;-74
2021/12/20 02:41:57;;;;;;;7.90;1.60;;;2.60;99.90;;;;;;5075390;28;20181;-74
2021/12/20 02:44:25;;;;;;;18.33;2.08;;;3.30;99.90;;;;;;5075161;28;20079;-74
2021/12/20 02:49:27;;;;;;;19.30;2.47;;;2.40;99.90;;;;;;5071719;28;20402;-73
2021/12/20 02:51:58;;;;;;;20.95;2.85;;;1.60;99.90;;;;;;5064509;28;20435;-74
2021/12/20 02:54:24;;;;;;;15.80;3.00;;;2.30;99.90;;;;;;5069343;28;20598;-74
2021/12/20 02:56:50;;;;;;;17.52;2.45;;;2.30;99.90;;;;;;5051326;28;20048;-74
2021/12/20 02:59:17;;;;;;;20.10;2.50;;;2.30;99.90;;;;;;5069371;28;20048;-74
2021/12/20 03:01:48;;;;;;;16.42;2.50;;;2.30;99.90;;;;;;5074359;28;20065;-73
2021/12/20 03:04:15;;;;;;;22.15;2.42;;;2.30;99.90;;;;;;5074450;28;20055;-73
2021/12/20 03:06:43;;;;;;;16.02;2.15;;;2.20;99.90;;;;;;5074733;28;20097;-73
2021/12/20 03:09:14;;;;;;;13.02;2.25;;;2.20;99.90;;;;;;5072638;28;20123;-73
2021/12/20 03:11:41;;;;;;;11.45;2.13;;;2.20;99.90;;;;;;5071145;28;20110;-73
2021/12/20 03:14:12;;;;;;;15.25;2.08;;;2.10;99.90;;;;;;5074915;28;20501;-73
2021/12/20 03:16:38;;;;;;;21.17;2.65;;;2.10;99.90;;;;;;5078892;28;20052;-74
2021/12/20 03:19:05;;;;;;;18.60;2.38;;;2.00;99.90;;;;;;5069668;28;20101;-73
2021/12/20 03:21:31;;;;;;;16.13;2.28;;;2.00;99.90;;;;;;5057691;28;20047;-74
2021/12/20 03:23:57;;;;;;;14.73;2.90;;;2.00;99.90;;;;;;5054184;28;20093;-74
2021/12/20 03:26:23;;;;;;;18.90;2.28;;;1.90;99.90;;;;;;5056723;28;20036;-74
2021/12/20 03:28:51;;;;;;;19.00;2.80;;;2.90;99.90;;;;;;5056047;28;20048;-74
2021/12/20 03:31:17;;;;;;;16.08;2.70;;;1.90;99.90;;;;;;5068940;28;20123;-74
2021/12/20 03:33:43;;;;;;;22.05;2.85;;;1.80;99.90;;;;;;5073681;28;20040;-74
2021/12/20 03:36:08;;;;;;;24.02;2.65;;;1.90;99.90;;;;;;5072724;28;20392;-74
2021/12/20 03:38:34;;;;;;;19.77;2.90;;;2.60;99.90;;;;;;5056093;28;20115;-74
2021/12/20 03:41:00;;;;;;;13.38;2.28;;;2.00;99.90;;;;;;5073057;28;20054;-73
2021/12/20 03:43:31;;;;;;;16.42;2.17;;;1.80;99.90;;;;;;5054796;28;20048;-74
2021/12/20 03:45:58;;;;;;;15.98;2.75;;;2.30;99.90;;;;;;5073116;28;20537;-73
2021/12/20 03:48:24;;;;;;;15.60;2.63;;;1.70;99.90;;;;;;5057132;28;20075;-73
2021/12/20 03:50:50;;;;;;;13.52;2.17;;;1.70;99.90;;;;;;5070768;28;20397;-73
2021/12/20 03:53:16;;;;;;;18.30;2.60;;;2.50;99.90;;;;;;5073743;28;20101;-74
2021/12/20 03:55:42;;;;;;;16.95;2.33;;;1.60;99.90;;;;;;5072099;28;20048;-74
2021/12/20 03:58:08;;;;;;;15.38;2.72;;;1.80;99.90;;;;;;5071695;28;20050;-73
2021/12/20 04:00:34;;;;;;;15.20;2.38;;;1.60;99.90;;;;;;5068619;28;20098;-74
2021/12/20 04:03:03;;;;;;;9.73;1.92;;;2.20;99.90;;;;;;5054571;28;20346;-74
2021/12/20 04:05:29;;;;;;;22.92;2.70;;;1.60;99.90;;;;;;5054881;28;20087;-74
2021/12/20 04:07:55;;;;;;;15.50;2.38;;;1.50;99.90;;;;;;5049622;28;20537;-73
2021/12/20 04:10:20;;;;;;;19.50;2.72;;;1.50;99.90;;;;;;5052733;28;20044;-74
2021/12/20 04:12:46;;;;;;;15.05;2.05;;;1.50;99.90;;;;;;5072566;28;20481;-73
2021/12/20 04:15:12;;;;;;;10.80;1.90;;;1.40;99.90;;;;;;5072873;28;20127;-74
2021/12/20 04:17:38;;;;;;;14.70;3.42;;;1.40;99.90;;;;;;5069541;28;20044;-73
2021/12/20 04:20:04;;;;;;;12.65;2.10;;;1.30;99.90;;;;;;5069590;28;20055;-73
2021/12/20 04:22:30;;;;;;;12.75;2.00;;;1.30;99.90;;;;;;5073119;28;20629;-73
2021/12/20 04:24:55;;;;;;;7.60;1.63;;;1.30;99.90;;;;;;5040500;28;20044;-73
2021/12/20 04:27:21;;;;;;;8.18;1.60;;;1.60;99.90;;;;;;5056198;28;20047;-75
2021/12/20 04:29:47;;;;;;;15.88;2.20;;;1.30;99.90;;;;;;5066115;28;20194;-73
2021/12/20 04:32:13;;;;;;;14.70;2.67;;;1.30;99.90;;;;;;5072675;28;20080;-74
2021/12/20 04:34:39;;;;;;;8.63;1.95;;;1.20;99.90;;;;;;5072968;28;20102;-73
2021/12/20 04:37:07;;;;;;;17.27;2.15;;;1.20;99.90;;;;;;5069238;28;20075;-74
2021/12/20 04:39:33;;;;;;;12.23;2.13;;;1.20;99.90;;;;;;5071126;28;20048;-75
2021/12/20 04:42:00;;;;;;;18.02;2.40;;;1.20;99.90;;;;;;5055194;28;20126;-73
2021/12/20 04:44:26;;;;;;;12.05;1.98;;;1.20;99.90;;;;;;5056506;28;20131;-73
2021/12/20 04:46:52;;;;;;;12.43;2.30;;;1.20;99.90;;;;;;5072522;28;20051;-74
2021/12/20 04:49:19;;;;;;;5.03;1.10;;;1.20;99.90;;;;;;5072452;28;20400;-73
2021/12/20 04:51:44;;;;;;;17.85;2.03;;;1.10;99.90;;;;;;5050523;28;20044;-72
2021/12/20 04:54:10;;;;;;;19.52;2.35;;;1.20;99.90;;;;;;5072610;28;20051;-74
2021/12/20 04:56:36;;;;;;;19.55;2.63;;;1.10;99.90;;;;;;5087494;28;20047;-73
2021/12/20 04:59:02;;;;;;;15.32;3.10;;;1.60;99.90;;;;;;5055321;28;20048;-72
2021/12/20 05:01:28;;;;;;;5.70;1.50;;;1.40;99.90;;;;;;5054588;28;20033;-73
2021/12/20 05:03:54;;;;;;;11.57;1.33;;;1.30;99.90;;;;;;5067611;28;20504;-72
2021/12/20 05:06:19;;;;;;;32.40;2.35;;;1.20;99.90;;;;;;5049425;28;20055;-73
2021/12/20 05:08:50;;;;;;;17.88;1.40;;;1.30;99.90;;;;;;5072045;28;20048;-72
2021/12/20 05:11:17;;;;;;;17.50;2.13;;;0.90;99.90;;;;;;5038013;28;20044;-72
2021/12/20 05:13:43;;;;;;;15.10;2.60;;;1.00;99.90;;;;;;5064434;28;20155;-72
2021/12/20 05:16:09;;;;;;;14.93;1.98;;;0.80;99.90;;;;;;5056009;28;20492;-72
2021/12/20 05:18:35;;;;;;;10.35;2.25;;;1.50;99.90;;;;;;5072831;28;20050;-72
2021/12/20 05:21:01;;;;;;;13.75;2.28;;;0.90;99.90;;;;;;5072140;28;20087;-72
2021/12/20 05:23:27;;;;;;;14.60;3.00;;;1.80;99.90;;;;;;5072455;28;20083;-72
2021/12/20 05:25:53;;;;;;;25.42;2.40;;;0.70;99.90;;;;;;5068527;28;20044;-71
2021/12/20 05:28:19;;;;;;;15.10;2.25;;;1.50;99.90;;;;;;5054114;28;20109;-72
2021/12/20 05:30:49;;;;;;;12.82;1.70;;;0.80;99.90;;;;;;5054436;28;20075;-72
2021/12/20 05:33:14;;;;;;;23.15;2.45;;;0.70;99.90;;;;;;5055313;28;20051;-72
2021/12/20 05:35:40;;;;;;;62.40;3.55;;;0.70;99.90;;;;;;5070739;28;20071;-74
2021/12/20 05:38:06;;;;;;;6.32;1.48;;;1.00;99.90;;;;;;5053387;28;20048;-71
2021/12/20 05:40:32;;;;;;;9.95;1.70;;;0.50;99.90;;;;;;5072949;28;20050;-72
2021/12/20 05:42:57;;;;;;;15.50;2.22;;;0.50;99.90;;;;;;5071933;28;20062;-71
2021/12/20 05:45:23;;;;;;;34.15;2.50;;;1.00;99.90;;;;;;5055951;28;20047;-73
2021/12/20 05:47:49;;;;;;;9.38;1.40;;;0.90;99.90;;;;;;5055369;28;20481;-72
2021/12/20 05:50:18;;;;;;;9.10;2.28;;;0.30;99.90;;;;;;5072745;28;20044;-73
2021/12/20 05:52:44;;;;;;;15.48;1.80;;;0.50;99.90;;;;;;5069537;28;20200;-71
2021/12/20 05:55:10;;;;;;;11.15;2.35;;;0.40;99.90;;;;;;5064983;28;20060;-73
2021/12/20 05:57:36;;;;;;;11.05;2.38;;;0.40;99.90;;;;;;5071748;28;20075;-71
2021/12/20 06:00:06;;;;;;;19.90;3.70;;;0.40;99.90;;;;;;5056036;28;20091;-71
2021/12/20 06:02:32;;;;;;;13.65;2.85;;;0.40;99.90;;;;;;5051925;28;20048;-72
2021/12/20 06:04:58;;;;;;;15.70;2.15;;;0.90;99.90;;;;;;5065384;28;20048;-71
2021/12/20 06:07:24;;;;;;;20.73;2.60;;;0.40;99.90;;;;;;5080755;28;20076;-71
2021/12/20 06:09:49;;;;;;;22.77;3.30;;;1.00;99.90;;;;;;5072398;28;20049;-71
2021/12/20 06:12:16;;;;;;;22.25;3.05;;;0.30;99.90;;;;;;5085183;28;20465;-71
2021/12/20 06:14:41;;;;;;;18.05;3.25;;;0.30;99.90;;;;;;5057347;28;20048;-71
2021/12/20 06:17:07;;;;;;;15.32;2.30;;;0.20;99.90;;;;;;5058322;28;20055;-71
2021/12/20 06:19:34;;;;;;;21.77;2.55;;;0.20;99.90;;;;;;5042207;28;20484;-72
2021/12/20 06:22:00;;;;;;;11.02;2.10;;;0.10;99.90;;;;;;5073086;28;20393;-71
2021/12/20 06:24:26;;;;;;;18.00;3.55;;;0.10;99.90;;;;;;5086487;28;20101;-70
2021/12/20 06:26:52;;;;;;;20.77;3.05;;;0.10;99.90;;;;;;5073883;28;20042;-71
2021/12/20 06:29:19;;;;;;;25.65;3.78;;;0.10;99.90;;;;;;5075695;28;20119;-73
2021/12/20 06:31:45;;;;;;;30.85;3.72;;;0.10;99.90;;;;;;5074595;28;20040;-72
2021/12/20 06:34:11;;;;;;;32.15;4.38;;;0.10;99.90;;;;;;5075677;28;20055;-73
2021/12/20 06:36:36;;;;;;;21.45;3.55;;;0.70;99.90;;;;;;5069510;28;20377;-71
2021/12/20 06:39:05;;;;;;;24.02;3.03;;;0.20;99.90;;;;;;5075617;28;20044;-73
2021/12/20 06:41:31;;;;;;;81.18;5.25;;;0.00;99.90;;;;;;5059048;28;20044;-70
2021/12/20 06:43:56;;;;;;;13.38;2.17;;;0.00;99.90;;;;;;5075485;28;20082;-71
2021/12/20 06:46:24;;;;;;;11.02;1.92;;;-0.10;99.90;;;;;;5058261;28;20071;-70
2021/12/20 06:48:54;;;;;;;13.48;2.28;;;-0.10;99.90;;;;;;5074319;28;20048;-71
2021/12/20 06:51:20;;;;;;;15.70;2.67;;;0.40;99.90;;;;;;5072794;28;20044;-70
2021/12/20 06:53:46;;;;;;;13.68;2.97;;;-0.20;99.90;;;;;;5058283;28;20182;-70
2021/12/20 06:56:12;;;;;;;15.90;3.45;;;0.80;99.90;;;;;;5054326;28;20044;-70
2021/12/20 06:58:39;;;;;;;25.63;4.72;;;-0.20;99.90;;;;;;5074938;28;20106;-71
2021/12/20 07:01:05;;;;;;;20.70;3.05;;;-0.20;99.90;;;;;;5071331;28;20056;-70
2021/12/20 07:03:31;;;;;;;16.63;3.35;;;-0.20;99.90;;;;;;5072457;28;20117;-71
2021/12/20 07:05:57;;;;;;;14.75;2.55;;;-0.30;99.90;;;;;;5068448;28;20052;-70
2021/12/20 07:08:22;;;;;;;19.13;2.67;;;-0.30;99.90;;;;;;5056374;28;20044;-70
2021/12/20 07:10:48;;;;;;;33.33;5.72;;;-0.30;99.90;;;;;;5057588;28;20044;-71
2021/12/20 07:13:14;;;;;;;34.47;6.45;;;-0.40;99.90;;;;;;5074795;28;20043;-71
2021/12/20 07:15:40;;;;;;;30.92;6.03;;;-0.30;99.90;;;;;;5058616;28;20048;-72
2021/12/20 07:18:06;;;;;;;25.95;4.70;;;0.20;99.90;;;;;;5071675;28;20052;-70
2021/12/20 07:20:32;;;;;;;29.05;5.22;;;0.00;99.90;;;;;;5072737;28;20068;-71
2021/12/20 07:22:58;;;;;;;24.25;4.65;;;-0.40;99.90;;;;;;5072195;28;20093;-71
2021/12/20 07:25:24;;;;;;;29.65;5.38;;;-0.40;99.90;;;;;;5038427;28;20505;-71
2021/12/20 07:27:52;;;;;;;35.08;7.25;;;-0.40;99.90;;;;;;5069385;28;20043;-71
2021/12/20 07:30:19;;;;;;;32.22;6.28;;;-0.40;99.90;;;;;;5065937;28;20047;-71
2021/12/20 07:32:45;;;;;;;29.30;6.28;;;-0.40;99.90;;;;;;5039590;28;20096;-71
2021/12/20 07:35:12;;;;;;;22.98;5.40;;;-0.40;99.90;;;;;;5041006;28;20074;-70
2021/12/20 07:37:38;;;;;;;27.13;6.28;;;-0.40;99.90;;;;;;5052972;28;20044;-72
2021/12/20 07:40:07;;;;;;;13.23;3.97;;;-0.10;99.90;;;;;;5074264;28;20067;-71
2021/12/20 07:42:33;;;;;;;31.23;5.25;;;-0.50;99.90;;;;;;5069439;28;20051;-71
2021/12/20 07:44:59;;;;;;;74.93;9.32;;;-0.50;99.90;;;;;;5053327;28;20366;-71
2021/12/20 07:47:25;;;;;;;15.18;4.18;;;-0.60;99.90;;;;;;5073528;28;20123;-71
2021/12/20 07:49:50;;;;;;;13.10;4.47;;;-0.50;99.90;;;;;;5070293;28;20044;-72
2021/12/20 07:52:16;;;;;;;13.93;4.60;;;-0.50;99.90;;;;;;5070456;28;20045;-72
2021/12/20 07:54:42;;;;;;;11.80;3.20;;;-0.40;99.90;;;;;;5058003;28;20047;-71
2021/12/20 07:57:07;;;;;;;11.73;3.60;;;-0.60;99.90;;;;;;5072652;28;20401;-71
2021/12/20 07:59:33;;;;;;;11.23;3.63;;;-0.50;99.90;;;;;;5055647;28;20044;-71
2021/12/20 08:01:59;;;;;;;29.75;3.55;;;-0.50;99.90;;;;;;5052647;28;20047;-71
2021/12/20 08:04:25;;;;;;;5.95;2.78;;;0.20;99.90;;;;;;5053598;28;20323;-72
2021/12/20 08:06:51;;;;;;;10.35;3.30;;;-0.50;99.90;;;;;;5069080;28;20071;-71
2021/12/20 08:09:16;;;;;;;65.20;6.18;;;-0.50;99.90;;;;;;5061836;28;20076;-71
2021/12/20 08:11:43;;;;;;;10.07;2.85;;;-0.50;99.90;;;;;;5057534;28;20048;-72
2021/12/20 08:14:09;;;;;;;12.05;3.58;;;0.70;99.90;;;;;;5065814;28;20484;-72
2021/12/20 08:16:34;;;;;;;14.80;3.40;;;-0.30;99.90;;;;;;5070705;28;20042;-71
2021/12/20 08:19:00;;;;;;;7.35;2.72;;;-0.30;99.90;;;;;;5070547;28;20045;-71
2021/12/20 08:21:26;;;;;;;26.77;5.40;;;-0.20;99.90;;;;;;5067812;28;20097;-72
2021/12/20 08:23:52;;;;;;;35.40;6.85;;;-0.20;99.90;;;;;;5067486;28;20052;-72
2021/12/20 08:26:18;;;;;;;32.58;6.20;;;0.30;99.90;;;;;;5058472;28;20044;-72
2021/12/20 08:28:44;;;;;;;28.85;6.93;;;0.00;99.90;;;;;;5071014;28;20048;-73
2021/12/20 08:31:10;;;;;;;31.50;7.05;;;0.10;99.90;;;;;;5070880;28;20055;-74
2021/12/20 08:33:37;;;;;;;43.47;8.63;;;0.40;99.90;;;;;;5054390;28;20046;-73
2021/12/20 08:36:05;;;;;;;22.98;6.43;;;0.20;99.90;;;;;;5070233;28;20048;-74
2021/12/20 08:38:31;;;;;;;36.20;7.35;;;0.20;99.90;;;;;;5070771;28;20052;-74
2021/12/20 08:40:58;;;;;;;25.65;7.22;;;0.30;99.90;;;;;;5070419;28;20077;-75
2021/12/20 08:43:23;;;;;;;30.95;6.80;;;0.30;99.90;;;;;;5070249;28;20123;-74
2021/12/20 08:45:50;;;;;;;42.33;7.38;;;1.00;99.90;;;;;;5068437;28;20123;-75
2021/12/20 08:48:16;;;;;;;55.15;8.35;;;0.50;99.90;;;;;;5065288;28;20052;-75
2021/12/20 08:50:43;;;;;;;25.48;6.05;;;0.50;99.90;;;;;;5070295;28;20048;-75
2021/12/20 08:53:13;;;;;;;63.58;10.40;;;0.80;99.90;;;;;;5070123;28;20378;-75
2021/12/20 08:55:40;;;;;;;66.15;9.35;;;0.70;99.90;;;;;;5067526;28;20477;-74
2021/12/20 08:58:07;;;;;;;49.40;8.77;;;0.80;99.90;;;;;;5068867;28;20736;-74
2021/12/20 09:00:34;;;;;;;44.58;8.45;;;0.90;99.90;;;;;;5053251;28;20048;-74
2021/12/20 09:03:01;;;;;;;25.23;6.55;;;1.00;99.90;;;;;;5067622;28;20059;-74
2021/12/20 09:05:29;;;;;;;38.95;8.02;;;1.50;99.90;;;;;;5072004;28;20048;-74
2021/12/20 09:07:59;;;;;;;36.50;8.18;;;1.20;99.90;;;;;;5056302;28;20054;-75
2021/12/20 09:10:25;;;;;;;49.55;10.10;;;1.30;99.90;;;;;;5069414;28;20051;-75
2021/12/20 09:12:50;;;;;;;62.05;9.95;;;1.30;99.90;;;;;;5055556;28;20036;-75
2021/12/20 09:15:18;;;;;;;49.05;9.48;;;1.70;99.90;;;;;;5071964;28;20047;-75
2021/12/20 09:17:54;;;;;;;45.53;9.30;;;2.60;99.90;;;;;;5068636;28;20058;-75
2021/12/20 09:20:23;;;;;;;55.13;8.80;;;1.60;99.90;;;;;;5055028;28;20051;-75
2021/12/20 09:22:51;;;;;;;92.25;11.50;;;1.60;99.90;;;;;;5071570;28;20046;-76
2021/12/20 09:25:22;;;;;;;66.93;16.10;;;2.60;99.90;;;;;;5071493;28;20391;-75
2021/12/20 09:27:48;;;;;;;98.00;12.02;;;1.90;99.90;;;;;;5071304;28;20044;-75
2021/12/20 09:30:15;;;;;;;104.32;12.18;;;1.90;99.90;;;;;;5055548;28;20066;-75
2021/12/20 09:32:41;;;;;;;80.97;12.15;;;1.90;99.90;;;;;;5054487;28;20051;-76
2021/12/20 09:35:08;;;;;;;75.45;10.48;;;1.90;99.90;;;;;;5067534;28;20044;-75
2021/12/20 09:37:34;;;;;;;55.65;10.13;;;1.90;99.90;;;;;;5063690;28;20072;-75
2021/12/20 09:40:00;;;;;;;44.60;9.73;;;2.00;99.90;;;;;;5072824;28;20079;-75
2021/12/20 09:42:26;;;;;;;22.85;7.95;;;2.70;99.90;;;;;;5056499;28;20036;-75
2021/12/20 09:44:54;;;;;;;29.00;8.57;;;2.30;99.90;;;;;;5053997;28;20051;-75
2021/12/20 09:47:19;;;;;;;18.63;6.28;;;2.30;99.90;;;;;;5071420;28;20094;-76
2021/12/20 09:49:46;;;;;;;10.52;5.60;;;2.40;99.90;;;;;;5074664;28;20060;-75
2021/12/20 09:52:12;;;;;;;13.10;5.95;;;2.50;99.90;;;;;;5072737;28;20054;-75
2021/12/20 09:54:39;;;;;;;12.18;6.10;;;2.70;99.90;;;;;;5052050;28;20085;-74
2021/12/20 09:57:10;;;;;;;14.52;6.20;;;2.90;99.90;;;;;;5039632;28;20131;-74
2021/12/20 09:59:38;;;;;;;16.40;7.80;;;3.10;99.90;;;;;;5077313;28;20054;-74
2021/12/20 10:02:08;;;;;;;17.00;6.97;;;3.50;99.90;;;;;;5060559;28;20048;-74
2021/12/20 10:04:35;;;;;;;19.92;7.63;;;3.40;99.90;;;;;;5086237;28;20063;-75
2021/12/20 10:07:02;;;;;;;19.15;7.32;;;3.50;99.90;;;;;;5058593;28;20044;-74
2021/12/20 10:09:33;;;;;;;14.93;7.40;;;3.60;99.90;;;;;;5060088;28;20113;-74
2021/12/20 10:12:11;;;;;;;15.18;6.95;;;3.70;99.90;;;;;;5076971;28;20055;-74
2021/12/20 10:15:02;;;;;;;21.50;7.20;;;3.90;99.90;;;;;;5073914;28;20040;-74
2021/12/20 10:17:32;;;;;;;28.33;8.65;;;4.00;99.90;;;;;;5082490;28;20048;-73
2021/12/20 10:20:28;;;;;;;18.70;7.70;;;4.20;99.90;;;;;;5073960;28;20044;-74
2021/12/20 10:23:18;;;;;;;17.65;7.35;;;4.40;99.90;;;;;;5089355;28;20048;-74
2021/12/20 10:25:46;;;;;;;19.48;7.97;;;4.60;99.90;;;;;;5050630;28;20201;-74
2021/12/20 10:28:18;;;;;;;21.88;8.25;;;4.60;99.90;;;;;;5076336;28;20492;-73
2021/12/20 10:31:11;;;;;;;26.13;8.30;;;4.70;99.90;;;;;;5051430;28;20045;-73
2021/12/20 10:33:37;;;;;;;26.67;6.93;;;4.80;99.90;;;;;;5065683;28;20062;-73
2021/12/20 10:36:13;;;;;;;19.13;6.47;;;4.90;99.90;;;;;;5075515;28;20047;-74
2021/12/20 10:38:44;;;;;;;11.88;5.63;;;5.10;99.90;;;;;;5064135;28;20136;-73
2021/12/20 10:41:28;;;;;;;15.67;8.20;;;6.00;99.90;;;;;;5076721;28;20497;-73
2021/12/20 10:44:00;;;;;;;17.65;8.23;;;5.20;99.90;;;;;;5059618;28;20535;-74
2021/12/20 10:46:29;;;;;;;21.02;7.82;;;5.70;99.90;;;;;;5056810;28;20143;-73
2021/12/20 10:49:03;;;;;;;16.63;7.63;;;6.10;99.90;;;;;;5075809;28;20048;-73
2021/12/20 10:51:39;;;;;;;20.40;7.35;;;5.60;99.90;;;;;;5076655;28;20117;-73
2021/12/20 10:54:10;;;;;;;16.02;6.75;;;5.70;99.90;;;;;;5075328;28;20055;-74
2021/12/20 10:56:52;;;;;;;15.75;5.93;;;5.80;99.90;;;;;;5060020;28;20070;-74
2021/12/20 10:59:21;;;;;;;15.77;5.38;;;5.80;99.90;;;;;;5059983;28;20413;-73
2021/12/20 11:04:38;;;;;;;18.33;4.38;;;6.00;99.90;;;;;;5071164;28;20087;-73
2021/12/20 11:09:40;;;;;;;14.50;4.28;;;6.20;99.90;;;;;;5061429;28;20059;-74
2021/12/20 11:12:11;;;;;;;9.77;3.55;;;6.30;99.90;;;;;;5092618;28;20089;-73
2021/12/20 11:14:40;;;;;;;11.25;3.10;;;6.60;99.90;;;;;;5090325;28;20521;-73
2021/12/20 11:17:08;;;;;;;11.35;2.80;;;6.70;99.90;;;;;;5069253;28;20056;-73
2021/12/20 11:19:36;;;;;;;11.43;3.00;;;6.50;99.90;;;;;;5069612;28;20591;-73
2021/12/20 11:22:04;;;;;;;11.63;3.88;;;6.60;99.90;;;;;;5075982;28;20076;-73
2021/12/20 11:25:00;;;;;;;14.13;3.40;;;6.70;99.90;;;;;;5075327;28;20093;-73
2021/12/20 11:27:35;;;;;;;12.85;3.50;;;6.70;99.90;;;;;;5072598;28;20454;-73
2021/12/20 11:30:08;;;;;;;16.38;3.95;;;7.00;99.90;;;;;;5093761;28;20436;-73
2021/12/20 11:32:34;;;;;;;12.77;3.70;;;7.30;99.90;;;;;;5075356;28;20051;-74
2021/12/20 11:35:00;;;;;;;12.15;3.75;;;7.90;99.90;;;;;;5074761;28;20291;-74
2021/12/20 11:37:28;;;;;;;13.93;3.80;;;8.40;99.90;;;;;;5057348;28;20048;-74
2021/12/20 11:39:55;;;;;;;13.35;3.20;;;8.90;99.90;;;;;;5058893;28;20051;-74
2021/12/20 11:42:23;;;;;;;7.78;2.70;;;9.10;99.90;;;;;;5074879;28;20119;-75
2021/12/20 11:44:53;;;;;;;8.80;2.20;;;9.30;99.90;;;;;;5064458;28;20093;-74
2021/12/20 11:47:35;;;;;;;11.15;2.15;;;9.50;99.90;;;;;;5070337;28;20048;-74
2021/12/20 11:50:08;;;;;;;;;;;9.50;99.90;;;;;;5059193;28;20507;-74
2021/12/20 11:52:42;;;;;;;11.77;2.80;;;9.60;99.90;;;;;;5075089;28;20289;-75
2021/12/20 11:55:27;;;;;;;10.75;2.92;;;10.00;99.90;;;;;;5074898;28;20102;-74
2021/12/20 11:57:58;;;;;;;9.70;2.88;;;10.30;99.90;;;;;;5071932;28;20048;-74
2021/12/20 12:00:28;;;;;;;10.82;2.85;;;10.50;99.90;;;;;;5068687;28;20058;-74
2021/12/20 12:03:16;;;;;;;12.85;3.08;;;10.80;99.90;;;;;;5057618;28;20103;-74
2021/12/20 12:05:49;;;;;;;14.73;2.97;;;11.00;99.90;;;;;;5057275;28;20052;-74
2021/12/20 12:08:26;;;;;;;11.18;2.58;;;11.20;99.90;;;;;;5074486;28;20132;-72
2021/12/20 12:10:54;;;;;;;12.25;2.53;;;11.30;99.90;;;;;;5057984;28;20044;-72
2021/12/20 12:13:22;;;;;;;14.13;2.63;;;11.50;99.90;;;;;;5073781;28;20400;-72
2021/12/20 12:15:54;;;;;;;11.32;2.53;;;11.80;99.90;;;;;;5073115;28;20066;-73
2021/12/20 12:18:40;;;;;;;11.38;2.97;;;12.00;99.90;;;;;;5057785;28;20437;-73
2021/12/20 12:21:07;;;;;;;9.23;2.63;;;12.20;99.90;;;;;;5067549;28;20066;-73
2021/12/20 12:23:44;;;;;;;11.82;2.70;;;12.40;99.90;;;;;;5070940;28;20447;-73
2021/12/20 12:26:31;;;;;;;11.23;2.80;;;12.40;99.90;;;;;;5073147;28;20121;-73
2021/12/20 12:28:57;;;;;;;7.75;2.00;;;12.80;99.90;;;;;;5058085;28;20048;-73
2021/12/20 12:31:24;;;;;;;10.93;2.08;;;12.80;99.90;;;;;;5090559;28;20046;-73
2021/12/20 12:34:11;;;;;;;9.18;2.00;;;12.70;99.90;;;;;;5069675;28;20047;-73
2021/12/20 12:36:41;;;;;;;6.75;1.60;;;12.80;99.90;;;;;;5058213;28;20066;-72
2021/12/20 12:39:11;;;;;;;9.98;2.40;;;12.90;99.90;;;;;;5056014;28;20049;-74
2021/12/20 12:41:46;;;;;;;12.13;2.60;;;13.00;99.90;;;;;;5074686;28;20046;-72
2021/12/20 12:44:15;;;;;;;7.82;2.45;;;13.00;99.90;;;;;;5070800;28;20087;-72
2021/12/20 12:46:41;;;;;;;7.85;2.33;;;13.10;99.90;;;;;;5051424;28;20067;-72
2021/12/20 12:49:22;;;;;;;6.75;2.38;;;13.10;99.90;;;;;;5070151;28;20036;-72
2021/12/20 12:51:49;;;;;;;9.75;2.72;;;13.20;99.90;;;;;;5071490;28;20524;-72
2021/12/20 12:54:33;;;;;;;9.45;2.67;;;13.40;99.90;;;;;;5072411;28;20515;-74
2021/12/20 12:57:10;;;;;;;11.27;3.40;;;13.40;99.90;;;;;;5090701;28;20083;-74
2021/12/20 13:00:00;;;;;;;10.80;3.45;;;13.40;99.90;;;;;;5080372;28;20463;-74
2021/12/20 13:02:29;;;;;;;10.68;3.17;;;12.90;99.90;;;;;;5087731;28;20052;-74
2021/12/20 13:05:06;;;;;;;10.75;3.67;;;12.90;99.90;;;;;;5088094;28;20138;-73
2021/12/20 13:07:43;;;;;;;13.13;3.88;;;13.00;99.90;;;;;;5067681;28;20048;-73
2021/12/20 13:10:37;;;;;;;8.70;3.50;;;13.00;99.90;;;;;;5072871;28;20048;-74